sensor_id;sensor_type;location;lat;lon;timestamp;pressure;altitude;pressure_sealevel;temperature;humidity
51245;BME280;37840;47.562;18.738;2023-04-30T00:01:10;99608.06;;;13.23;65.34
51245;BME280;37840;47.562;18.738;2023-04-30T00:03:36;99601.94;;;13.12;65.55
51245;BME280;37840;47.562;18.738;2023-04-30T00:06:02;99602.06;;;13.10;65.56
51245;BME280;37840;47.562;18.738;2023-04-30T00:08:28;99605.37;;;13.02;65.62
51245;BME280;37840;47.562;18.738;2023-04-30T00:10:54;99609.91;;;12.91;66.06
51245;BME280;37840;47.562;18.738;2023-04-30T00:13:20;99609.69;;;12.82;66.19
51245;BME280;37840;47.562;18.738;2023-04-30T00:15:46;99610.81;;;12.80;66.27
51245;BME280;37840;47.562;18.738;2023-04-30T00:18:12;99607.28;;;12.79;66.29
51245;BME280;37840;47.562;18.738;2023-04-30T00:20:38;99616.66;;;12.74;65.46
51245;BME280;37840;47.562;18.738;2023-04-30T00:23:04;99603.69;;;12.69;65.40
51245;BME280;37840;47.562;18.738;2023-04-30T00:25:30;99609.03;;;12.58;65.87
51245;BME280;37840;47.562;18.738;2023-04-30T00:27:56;99598.16;;;12.50;65.69
51245;BME280;37840;47.562;18.738;2023-04-30T00:30:22;99605.44;;;12.48;65.86
51245;BME280;37840;47.562;18.738;2023-04-30T00:32:48;99600.97;;;12.37;66.37
51245;BME280;37840;47.562;18.738;2023-04-30T00:35:13;99606.44;;;12.35;66.67
51245;BME280;37840;47.562;18.738;2023-04-30T00:37:40;99602.06;;;12.34;67.09
51245;BME280;37840;47.562;18.738;2023-04-30T00:40:07;99595.75;;;12.35;67.00
51245;BME280;37840;47.562;18.738;2023-04-30T00:42:33;99597.81;;;12.32;67.34
51245;BME280;37840;47.562;18.738;2023-04-30T00:44:59;99592.75;;;12.29;67.44
51245;BME280;37840;47.562;18.738;2023-04-30T00:47:25;99593.59;;;12.29;67.80
51245;BME280;37840;47.562;18.738;2023-04-30T00:49:51;99591.88;;;12.28;67.85
51245;BME280;37840;47.562;18.738;2023-04-30T00:52:17;99589.22;;;12.28;67.78
51245;BME280;37840;47.562;18.738;2023-04-30T00:54:43;99592.59;;;12.30;68.21
51245;BME280;37840;47.562;18.738;2023-04-30T00:57:11;99591.66;;;12.31;68.45
51245;BME280;37840;47.562;18.738;2023-04-30T00:59:38;99592.97;;;12.26;68.38
51245;BME280;37840;47.562;18.738;2023-04-30T01:02:04;99587.19;;;12.20;68.32
51245;BME280;37840;47.562;18.738;2023-04-30T01:04:30;99589.97;;;12.19;68.58
51245;BME280;37840;47.562;18.738;2023-04-30T01:06:58;99596.41;;;12.16;68.76
51245;BME280;37840;47.562;18.738;2023-04-30T01:09:27;99587.06;;;12.11;68.15
51245;BME280;37840;47.562;18.738;2023-04-30T01:12:12;99592.16;;;12.02;68.06
51245;BME280;37840;47.562;18.738;2023-04-30T01:14:56;99597.13;;;11.96;68.37
51245;BME280;37840;47.562;18.738;2023-04-30T01:20:11;99592.88;;;11.82;68.89
51245;BME280;37840;47.562;18.738;2023-04-30T01:22:45;99596.37;;;11.82;69.32
51245;BME280;37840;47.562;18.738;2023-04-30T01:28:15;99606.19;;;11.82;70.20
51245;BME280;37840;47.562;18.738;2023-04-30T01:30:42;99601.97;;;11.79;70.57
51245;BME280;37840;47.562;18.738;2023-04-30T01:33:12;99594.91;;;11.78;71.13
51245;BME280;37840;47.562;18.738;2023-04-30T01:38:59;99595.66;;;11.80;71.09
51245;BME280;37840;47.562;18.738;2023-04-30T01:41:39;99594.56;;;11.83;71.15
51245;BME280;37840;47.562;18.738;2023-04-30T01:52:53;99596.47;;;11.81;73.18
51245;BME280;37840;47.562;18.738;2023-04-30T01:55:35;99598.78;;;11.86;73.40
51245;BME280;37840;47.562;18.738;2023-04-30T01:58:06;99604.75;;;11.89;73.44
51245;BME280;37840;47.562;18.738;2023-04-30T02:00:34;99605.81;;;11.87;73.20
51245;BME280;37840;47.562;18.738;2023-04-30T02:03:00;99609.12;;;11.90;73.22
51245;BME280;37840;47.562;18.738;2023-04-30T02:05:26;99611.44;;;11.95;73.22
51245;BME280;37840;47.562;18.738;2023-04-30T02:07:52;99610.09;;;11.89;73.27
51245;BME280;37840;47.562;18.738;2023-04-30T02:10:20;99609.25;;;11.89;72.93
51245;BME280;37840;47.562;18.738;2023-04-30T02:12:46;99606.66;;;11.87;72.61
51245;BME280;37840;47.562;18.738;2023-04-30T02:15:12;99608.88;;;11.93;72.39
51245;BME280;37840;47.562;18.738;2023-04-30T02:17:38;99611.28;;;11.96;72.31
51245;BME280;37840;47.562;18.738;2023-04-30T02:20:05;99614.69;;;11.98;72.22
51245;BME280;37840;47.562;18.738;2023-04-30T02:22:31;99610.06;;;12.00;72.06
51245;BME280;37840;47.562;18.738;2023-04-30T02:24:57;99609.12;;;12.01;72.03
51245;BME280;37840;47.562;18.738;2023-04-30T02:27:24;99610.06;;;12.00;71.39
51245;BME280;37840;47.562;18.738;2023-04-30T02:29:51;99617.84;;;11.92;71.74
51245;BME280;37840;47.562;18.738;2023-04-30T02:32:18;99616.69;;;11.83;72.18
51245;BME280;37840;47.562;18.738;2023-04-30T02:34:44;99616.34;;;11.77;72.59
51245;BME280;37840;47.562;18.738;2023-04-30T02:37:10;99620.34;;;11.71;72.89
51245;BME280;37840;47.562;18.738;2023-04-30T02:39:36;99621.78;;;11.64;73.37
51245;BME280;37840;47.562;18.738;2023-04-30T02:42:02;99620.09;;;11.63;73.65
51245;BME280;37840;47.562;18.738;2023-04-30T02:44:29;99628.56;;;11.57;73.88
51245;BME280;37840;47.562;18.738;2023-04-30T02:46:55;99624.31;;;11.54;73.86
51245;BME280;37840;47.562;18.738;2023-04-30T02:49:21;99627.94;;;11.53;74.00
51245;BME280;37840;47.562;18.738;2023-04-30T02:51:47;99630.13;;;11.48;74.33
51245;BME280;37840;47.562;18.738;2023-04-30T02:54:12;99630.94;;;11.49;74.39
51245;BME280;37840;47.562;18.738;2023-04-30T02:56:38;99637.13;;;11.49;74.39
51245;BME280;37840;47.562;18.738;2023-04-30T02:59:04;99638.31;;;11.45;74.49
51245;BME280;37840;47.562;18.738;2023-04-30T03:01:30;99643.53;;;11.47;74.37
51245;BME280;37840;47.562;18.738;2023-04-30T03:03:56;99640.59;;;11.38;74.22
51245;BME280;37840;47.562;18.738;2023-04-30T03:06:25;99649.06;;;11.32;74.31
51245;BME280;37840;47.562;18.738;2023-04-30T03:08:51;99652.59;;;11.33;74.22
51245;BME280;37840;47.562;18.738;2023-04-30T03:11:17;99650.13;;;11.30;74.58
51245;BME280;37840;47.562;18.738;2023-04-30T03:13:43;99645.25;;;11.12;74.85
51245;BME280;37840;47.562;18.738;2023-04-30T03:16:09;99652.97;;;11.15;75.41
51245;BME280;37840;47.562;18.738;2023-04-30T03:18:35;99646.19;;;11.11;75.71
51245;BME280;37840;47.562;18.738;2023-04-30T03:21:01;99644.69;;;10.96;76.55
51245;BME280;37840;47.562;18.738;2023-04-30T03:23:27;99646.75;;;10.92;76.75
51245;BME280;37840;47.562;18.738;2023-04-30T03:25:53;99643.59;;;10.98;76.50
51245;BME280;37840;47.562;18.738;2023-04-30T03:28:19;99648.91;;;10.98;76.51
51245;BME280;37840;47.562;18.738;2023-04-30T03:30:45;99655.72;;;11.02;76.55
51245;BME280;37840;47.562;18.738;2023-04-30T03:33:11;99644.50;;;11.10;76.22
51245;BME280;37840;47.562;18.738;2023-04-30T03:35:38;99642.59;;;11.12;75.90
51245;BME280;37840;47.562;18.738;2023-04-30T03:38:04;99639.69;;;11.15;75.52
51245;BME280;37840;47.562;18.738;2023-04-30T03:40:30;99647.56;;;11.17;75.43
51245;BME280;37840;47.562;18.738;2023-04-30T03:42:55;99643.06;;;11.17;75.51
51245;BME280;37840;47.562;18.738;2023-04-30T03:45:21;99636.69;;;11.20;75.50
51245;BME280;37840;47.562;18.738;2023-04-30T03:47:48;99644.16;;;11.15;75.51
51245;BME280;37840;47.562;18.738;2023-04-30T03:50:16;99641.50;;;11.15;75.42
51245;BME280;37840;47.562;18.738;2023-04-30T03:55:26;99639.69;;;11.15;75.47
51245;BME280;37840;47.562;18.738;2023-04-30T03:57:52;99646.59;;;11.18;76.80
51245;BME280;37840;47.562;18.738;2023-04-30T04:00:19;99649.13;;;11.19;77.66
51245;BME280;37840;47.562;18.738;2023-04-30T04:02:45;99650.75;;;11.22;78.97
51245;BME280;37840;47.562;18.738;2023-04-30T04:05:11;99654.09;;;11.24;78.12
51245;BME280;37840;47.562;18.738;2023-04-30T04:07:37;99659.31;;;11.26;77.07
51245;BME280;37840;47.562;18.738;2023-04-30T04:10:03;99659.66;;;11.21;77.16
51245;BME280;37840;47.562;18.738;2023-04-30T04:12:29;99663.41;;;11.18;77.39
51245;BME280;37840;47.562;18.738;2023-04-30T04:14:55;99674.41;;;11.14;77.63
51245;BME280;37840;47.562;18.738;2023-04-30T04:17:21;99676.44;;;11.10;78.51
51245;BME280;37840;47.562;18.738;2023-04-30T04:19:49;99677.53;;;11.08;79.00
51245;BME280;37840;47.562;18.738;2023-04-30T04:22:15;99688.78;;;11.11;78.67
51245;BME280;37840;47.562;18.738;2023-04-30T04:24:41;99688.37;;;11.05;79.50
51245;BME280;37840;47.562;18.738;2023-04-30T04:27:07;99692.03;;;11.04;79.92
51245;BME280;37840;47.562;18.738;2023-04-30T04:29:33;99696.50;;;11.03;79.94
51245;BME280;37840;47.562;18.738;2023-04-30T04:31:59;99698.91;;;11.06;80.11
51245;BME280;37840;47.562;18.738;2023-04-30T04:34:27;99700.09;;;11.02;80.63
51245;BME280;37840;47.562;18.738;2023-04-30T04:36:53;99701.56;;;11.06;80.87
51245;BME280;37840;47.562;18.738;2023-04-30T04:39:19;99707.41;;;11.11;81.95
51245;BME280;37840;47.562;18.738;2023-04-30T04:41:45;99703.69;;;11.14;82.15
51245;BME280;37840;47.562;18.738;2023-04-30T04:44:10;99705.47;;;11.13;83.76
51245;BME280;37840;47.562;18.738;2023-04-30T04:46:36;99706.34;;;11.14;84.10
51245;BME280;37840;47.562;18.738;2023-04-30T04:49:03;99714.19;;;11.15;83.79
51245;BME280;37840;47.562;18.738;2023-04-30T04:51:29;99721.59;;;11.12;83.60
51245;BME280;37840;47.562;18.738;2023-04-30T04:53:56;99720.88;;;11.21;83.94
51245;BME280;37840;47.562;18.738;2023-04-30T04:56:22;99724.38;;;11.21;84.26
51245;BME280;37840;47.562;18.738;2023-04-30T04:58:48;99723.00;;;11.29;84.40
51245;BME280;37840;47.562;18.738;2023-04-30T05:01:14;99727.13;;;11.33;85.00
51245;BME280;37840;47.562;18.738;2023-04-30T05:03:40;99734.41;;;11.42;85.71
51245;BME280;37840;47.562;18.738;2023-04-30T05:06:06;99730.56;;;11.46;85.73
51245;BME280;37840;47.562;18.738;2023-04-30T05:08:32;99732.13;;;11.49;85.82
51245;BME280;37840;47.562;18.738;2023-04-30T05:10:58;99731.12;;;11.62;85.98
51245;BME280;37840;47.562;18.738;2023-04-30T05:13:24;99740.09;;;11.73;85.77
51245;BME280;37840;47.562;18.738;2023-04-30T05:15:52;99734.66;;;11.74;86.01
51245;BME280;37840;47.562;18.738;2023-04-30T05:18:19;99738.66;;;11.80;85.57
51245;BME280;37840;47.562;18.738;2023-04-30T05:20:45;99737.16;;;11.89;85.74
51245;BME280;37840;47.562;18.738;2023-04-30T05:23:11;99737.41;;;11.97;85.06
51245;BME280;37840;47.562;18.738;2023-04-30T05:25:37;99740.09;;;12.08;85.27
51245;BME280;37840;47.562;18.738;2023-04-30T05:28:03;99736.94;;;12.26;84.74
51245;BME280;37840;47.562;18.738;2023-04-30T05:30:29;99735.63;;;12.31;83.67
51245;BME280;37840;47.562;18.738;2023-04-30T05:32:56;99746.28;;;12.42;82.78
51245;BME280;37840;47.562;18.738;2023-04-30T05:35:22;99744.59;;;12.53;82.85
51245;BME280;37840;47.562;18.738;2023-04-30T05:37:48;99755.75;;;12.58;83.00
51245;BME280;37840;47.562;18.738;2023-04-30T05:40:14;99744.72;;;12.74;82.14
51245;BME280;37840;47.562;18.738;2023-04-30T05:42:43;99749.81;;;12.88;81.08
51245;BME280;37840;47.562;18.738;2023-04-30T05:45:09;99750.88;;;12.97;80.44
51245;BME280;37840;47.562;18.738;2023-04-30T05:47:37;99741.66;;;13.01;79.90
51245;BME280;37840;47.562;18.738;2023-04-30T05:50:03;99742.13;;;12.95;80.12
51245;BME280;37840;47.562;18.738;2023-04-30T05:52:29;99745.16;;;13.01;79.76
51245;BME280;37840;47.562;18.738;2023-04-30T05:54:55;99738.22;;;13.10;79.21
51245;BME280;37840;47.562;18.738;2023-04-30T05:57:21;99735.78;;;13.18;78.63
51245;BME280;37840;47.562;18.738;2023-04-30T05:59:47;99737.22;;;13.22;78.92
51245;BME280;37840;47.562;18.738;2023-04-30T06:02:13;99742.66;;;13.32;78.10
51245;BME280;37840;47.562;18.738;2023-04-30T06:04:39;99737.88;;;13.47;78.67
51245;BME280;37840;47.562;18.738;2023-04-30T06:07:05;99735.34;;;13.45;78.67
51245;BME280;37840;47.562;18.738;2023-04-30T06:09:31;99750.34;;;13.58;77.88
51245;BME280;37840;47.562;18.738;2023-04-30T06:11:57;99744.69;;;13.72;77.43
51245;BME280;37840;47.562;18.738;2023-04-30T06:14:24;99742.81;;;13.84;77.48
51245;BME280;37840;47.562;18.738;2023-04-30T06:16:50;99743.13;;;13.91;76.76
51245;BME280;37840;47.562;18.738;2023-04-30T06:19:16;99735.75;;;13.83;76.46
51245;BME280;37840;47.562;18.738;2023-04-30T06:21:42;99743.97;;;13.91;75.99
51245;BME280;37840;47.562;18.738;2023-04-30T06:24:08;99734.59;;;13.97;76.79
51245;BME280;37840;47.562;18.738;2023-04-30T06:26:35;99732.84;;;14.07;76.58
51245;BME280;37840;47.562;18.738;2023-04-30T06:29:01;99738.41;;;14.25;74.92
51245;BME280;37840;47.562;18.738;2023-04-30T06:31:27;99738.16;;;14.28;74.44
51245;BME280;37840;47.562;18.738;2023-04-30T06:33:53;99744.59;;;14.25;75.31
51245;BME280;37840;47.562;18.738;2023-04-30T06:36:19;99732.25;;;14.34;74.58
51245;BME280;37840;47.562;18.738;2023-04-30T06:38:45;99739.72;;;14.31;73.43
51245;BME280;37840;47.562;18.738;2023-04-30T06:41:12;99745.38;;;14.37;73.53
51245;BME280;37840;47.562;18.738;2023-04-30T06:43:38;99749.16;;;14.56;73.03
51245;BME280;37840;47.562;18.738;2023-04-30T06:46:04;99744.84;;;14.64;72.27
51245;BME280;37840;47.562;18.738;2023-04-30T06:48:31;99756.97;;;14.68;72.82
51245;BME280;37840;47.562;18.738;2023-04-30T06:50:57;99755.44;;;14.76;72.02
51245;BME280;37840;47.562;18.738;2023-04-30T06:53:24;99756.78;;;15.01;71.31
51245;BME280;37840;47.562;18.738;2023-04-30T06:55:50;99757.37;;;15.14;70.82
51245;BME280;37840;47.562;18.738;2023-04-30T06:58:16;99755.84;;;15.31;69.91
51245;BME280;37840;47.562;18.738;2023-04-30T07:00:43;99757.41;;;15.43;69.43
51245;BME280;37840;47.562;18.738;2023-04-30T07:03:09;99757.97;;;15.47;69.23
51245;BME280;37840;47.562;18.738;2023-04-30T07:05:35;99757.97;;;15.47;69.09
51245;BME280;37840;47.562;18.738;2023-04-30T07:08:02;99756.56;;;15.62;68.54
51245;BME280;37840;47.562;18.738;2023-04-30T07:10:29;99761.69;;;15.75;69.16
51245;BME280;37840;47.562;18.738;2023-04-30T07:12:56;99757.87;;;15.87;68.23
51245;BME280;37840;47.562;18.738;2023-04-30T07:15:22;99746.00;;;15.80;68.16
51245;BME280;37840;47.562;18.738;2023-04-30T07:17:48;99749.13;;;15.76;67.05
51245;BME280;37840;47.562;18.738;2023-04-30T07:20:14;99744.31;;;15.79;66.20
51245;BME280;37840;47.562;18.738;2023-04-30T07:22:43;99743.59;;;15.87;66.05
51245;BME280;37840;47.562;18.738;2023-04-30T07:25:13;99740.34;;;15.93;66.84
51245;BME280;37840;47.562;18.738;2023-04-30T07:27:40;99740.34;;;15.93;65.34
51245;BME280;37840;47.562;18.738;2023-04-30T07:30:07;99745.44;;;15.96;67.26
51245;BME280;37840;47.562;18.738;2023-04-30T07:32:35;99742.56;;;16.17;66.65
51245;BME280;37840;47.562;18.738;2023-04-30T07:35:02;99731.59;;;16.38;65.11
51245;BME280;37840;47.562;18.738;2023-04-30T07:37:29;99731.91;;;16.45;65.09
51245;BME280;37840;47.562;18.738;2023-04-30T07:39:55;99726.66;;;16.43;65.73
51245;BME280;37840;47.562;18.738;2023-04-30T07:42:21;99722.69;;;16.47;64.17
51245;BME280;37840;47.562;18.738;2023-04-30T07:44:47;99731.34;;;16.41;63.58
51245;BME280;37840;47.562;18.738;2023-04-30T07:47:14;99725.63;;;16.54;62.90
51245;BME280;37840;47.562;18.738;2023-04-30T07:49:39;99720.13;;;16.56;62.31
51245;BME280;37840;47.562;18.738;2023-04-30T07:52:06;99730.28;;;16.62;62.51
51245;BME280;37840;47.562;18.738;2023-04-30T07:54:35;99716.78;;;16.71;63.98
51245;BME280;37840;47.562;18.738;2023-04-30T07:57:04;99728.09;;;16.65;63.02
51245;BME280;37840;47.562;18.738;2023-04-30T07:59:30;99716.22;;;16.68;61.82
51245;BME280;37840;47.562;18.738;2023-04-30T08:01:56;99726.81;;;16.69;62.18
51245;BME280;37840;47.562;18.738;2023-04-30T08:04:23;99740.09;;;16.71;62.50
51245;BME280;37840;47.562;18.738;2023-04-30T08:06:49;99729.06;;;16.84;61.45
51245;BME280;37840;47.562;18.738;2023-04-30T08:09:15;99728.50;;;16.80;60.61
51245;BME280;37840;47.562;18.738;2023-04-30T08:11:41;99730.91;;;16.83;60.28
51245;BME280;37840;47.562;18.738;2023-04-30T08:14:07;99723.97;;;16.81;59.53
51245;BME280;37840;47.562;18.738;2023-04-30T08:16:33;99726.84;;;16.97;61.21
51245;BME280;37840;47.562;18.738;2023-04-30T08:18:59;99727.78;;;17.06;59.64
51245;BME280;37840;47.562;18.738;2023-04-30T08:21:25;99724.91;;;17.17;59.61
51245;BME280;37840;47.562;18.738;2023-04-30T08:23:53;99721.84;;;17.30;60.54
51245;BME280;37840;47.562;18.738;2023-04-30T08:26:19;99720.16;;;17.47;59.15
51245;BME280;37840;47.562;18.738;2023-04-30T08:28:46;99717.38;;;17.39;57.45
51245;BME280;37840;47.562;18.738;2023-04-30T08:31:11;99720.59;;;17.42;55.94
51245;BME280;37840;47.562;18.738;2023-04-30T08:33:37;99711.13;;;17.38;56.68
51245;BME280;37840;47.562;18.738;2023-04-30T08:36:04;99716.31;;;17.49;56.70
51245;BME280;37840;47.562;18.738;2023-04-30T08:38:30;99714.88;;;17.63;56.83
51245;BME280;37840;47.562;18.738;2023-04-30T08:43:33;99711.28;;;17.72;56.68
51245;BME280;37840;47.562;18.738;2023-04-30T08:46:00;99711.91;;;17.48;57.96
51245;BME280;37840;47.562;18.738;2023-04-30T08:48:28;99722.84;;;17.47;57.61
51245;BME280;37840;47.562;18.738;2023-04-30T08:50:54;99719.44;;;17.63;56.89
51245;BME280;37840;47.562;18.738;2023-04-30T08:53:20;99722.75;;;17.75;56.55
51245;BME280;37840;47.562;18.738;2023-04-30T08:55:47;99734.34;;;17.75;57.87
51245;BME280;37840;47.562;18.738;2023-04-30T08:58:13;99730.72;;;17.84;57.25
51245;BME280;37840;47.562;18.738;2023-04-30T09:00:39;99734.66;;;17.90;56.62
51245;BME280;37840;47.562;18.738;2023-04-30T09:03:06;99727.28;;;17.92;55.50
51245;BME280;37840;47.562;18.738;2023-04-30T09:05:33;99737.84;;;17.93;55.03
51245;BME280;37840;47.562;18.738;2023-04-30T09:07:59;99722.25;;;17.97;55.08
51245;BME280;37840;47.562;18.738;2023-04-30T09:10:24;99726.03;;;18.12;54.25
51245;BME280;37840;47.562;18.738;2023-04-30T09:13:01;99731.59;;;18.11;54.13
51245;BME280;37840;47.562;18.738;2023-04-30T09:15:29;99737.06;;;18.19;55.12
51245;BME280;37840;47.562;18.738;2023-04-30T09:18:13;99739.75;;;18.19;54.15
51245;BME280;37840;47.562;18.738;2023-04-30T09:20:59;99731.28;;;18.14;53.49
51245;BME280;37840;47.562;18.738;2023-04-30T09:23:27;99730.84;;;18.01;52.58
51245;BME280;37840;47.562;18.738;2023-04-30T09:25:53;99727.06;;;18.11;53.39
51245;BME280;37840;47.562;18.738;2023-04-30T09:28:19;99737.75;;;18.21;53.70
51245;BME280;37840;47.562;18.738;2023-04-30T09:30:50;99742.16;;;18.30;53.05
51245;BME280;37840;47.562;18.738;2023-04-30T09:33:16;99736.28;;;18.35;51.86
51245;BME280;37840;47.562;18.738;2023-04-30T09:35:42;99736.88;;;18.47;51.53
51245;BME280;37840;47.562;18.738;2023-04-30T09:38:28;99741.94;;;18.50;52.03
51245;BME280;37840;47.562;18.738;2023-04-30T09:40:57;99734.81;;;18.41;51.20
51245;BME280;37840;47.562;18.738;2023-04-30T09:43:23;99747.69;;;18.29;53.05
51245;BME280;37840;47.562;18.738;2023-04-30T09:45:49;99743.72;;;18.41;51.34
51245;BME280;37840;47.562;18.738;2023-04-30T09:48:17;99742.56;;;18.44;51.52
51245;BME280;37840;47.562;18.738;2023-04-30T09:50:45;99738.59;;;18.56;52.52
51245;BME280;37840;47.562;18.738;2023-04-30T09:53:13;99743.28;;;18.54;50.51
51245;BME280;37840;47.562;18.738;2023-04-30T09:55:43;99737.75;;;18.56;50.87
51245;BME280;37840;47.562;18.738;2023-04-30T09:58:11;99743.53;;;18.69;50.39
51245;BME280;37840;47.562;18.738;2023-04-30T10:00:38;99736.47;;;18.76;52.77
51245;BME280;37840;47.562;18.738;2023-04-30T10:03:06;99735.59;;;18.93;51.41
51245;BME280;37840;47.562;18.738;2023-04-30T10:05:40;99732.22;;;18.91;51.18
51245;BME280;37840;47.562;18.738;2023-04-30T10:08:18;99719.09;;;18.97;50.64
51245;BME280;37840;47.562;18.738;2023-04-30T10:10:49;99724.13;;;19.00;49.95
51245;BME280;37840;47.562;18.738;2023-04-30T10:13:17;99725.50;;;19.04;48.76
51245;BME280;37840;47.562;18.738;2023-04-30T10:15:53;99715.09;;;19.09;50.29
51245;BME280;37840;47.562;18.738;2023-04-30T10:18:31;99715.59;;;19.04;48.64
51245;BME280;37840;47.562;18.738;2023-04-30T10:21:05;99705.28;;;19.08;46.50
51245;BME280;37840;47.562;18.738;2023-04-30T10:23:38;99709.19;;;19.05;46.63
51245;BME280;37840;47.562;18.738;2023-04-30T10:26:04;99698.91;;;19.09;46.49
51245;BME280;37840;47.562;18.738;2023-04-30T10:28:31;99697.91;;;19.18;47.83
51245;BME280;37840;47.562;18.738;2023-04-30T10:30:57;99714.44;;;19.23;48.03
51245;BME280;37840;47.562;18.738;2023-04-30T10:36:25;99708.84;;;19.17;47.16
51245;BME280;37840;47.562;18.738;2023-04-30T10:38:53;99712.06;;;19.20;48.13
51245;BME280;37840;47.562;18.738;2023-04-30T10:41:19;99704.69;;;19.30;47.78
51245;BME280;37840;47.562;18.738;2023-04-30T10:43:46;99708.03;;;19.24;48.51
51245;BME280;37840;47.562;18.738;2023-04-30T10:46:21;99704.84;;;19.29;48.11
51245;BME280;37840;47.562;18.738;2023-04-30T10:48:49;99707.03;;;19.33;48.11
51245;BME280;37840;47.562;18.738;2023-04-30T10:51:16;99699.47;;;19.37;48.63
51245;BME280;37840;47.562;18.738;2023-04-30T10:53:42;99710.06;;;19.30;47.71
51245;BME280;37840;47.562;18.738;2023-04-30T10:56:09;99714.94;;;19.27;46.91
51245;BME280;37840;47.562;18.738;2023-04-30T10:58:37;99708.72;;;19.26;47.42
51245;BME280;37840;47.562;18.738;2023-04-30T11:01:22;99711.91;;;19.22;48.14
51245;BME280;37840;47.562;18.738;2023-04-30T11:04:10;99705.84;;;19.20;46.16
51245;BME280;37840;47.562;18.738;2023-04-30T11:09:17;99700.28;;;19.13;50.17
51245;BME280;37840;47.562;18.738;2023-04-30T11:11:44;99702.50;;;19.26;48.64
51245;BME280;37840;47.562;18.738;2023-04-30T11:14:11;99701.97;;;19.30;47.11
51245;BME280;37840;47.562;18.738;2023-04-30T11:16:37;99699.97;;;19.32;47.27
51245;BME280;37840;47.562;18.738;2023-04-30T11:19:11;99697.28;;;19.41;47.80
51245;BME280;37840;47.562;18.738;2023-04-30T11:21:41;99700.47;;;19.52;47.94
51245;BME280;37840;47.562;18.738;2023-04-30T11:25:07;99712.63;;;19.65;46.80
51245;BME280;37840;47.562;18.738;2023-04-30T11:27:41;99709.59;;;19.68;45.91
51245;BME280;37840;47.562;18.738;2023-04-30T11:30:14;99705.72;;;19.62;46.12
51245;BME280;37840;47.562;18.738;2023-04-30T11:32:43;99698.81;;;19.68;45.14
51245;BME280;37840;47.562;18.738;2023-04-30T11:35:13;99703.19;;;19.69;47.08
51245;BME280;37840;47.562;18.738;2023-04-30T11:37:42;99699.13;;;19.65;45.17
51245;BME280;37840;47.562;18.738;2023-04-30T11:40:11;99707.22;;;19.56;45.31
51245;BME280;37840;47.562;18.738;2023-04-30T11:42:38;99703.69;;;19.56;44.97
51245;BME280;37840;47.562;18.738;2023-04-30T11:45:09;99704.53;;;19.65;45.60
51245;BME280;37840;47.562;18.738;2023-04-30T11:47:47;99701.16;;;19.54;45.68
51245;BME280;37840;47.562;18.738;2023-04-30T11:50:17;99715.69;;;19.70;44.87
51245;BME280;37840;47.562;18.738;2023-04-30T11:52:50;99713.84;;;19.79;44.94
51245;BME280;37840;47.562;18.738;2023-04-30T11:55:19;99718.22;;;19.71;44.02
51245;BME280;37840;47.562;18.738;2023-04-30T11:57:47;99713.84;;;19.79;43.68
51245;BME280;37840;47.562;18.738;2023-04-30T12:00:17;99715.84;;;19.85;43.52
51245;BME280;37840;47.562;18.738;2023-04-30T12:02:45;99705.91;;;19.85;43.14
51245;BME280;37840;47.562;18.738;2023-04-30T12:05:13;99702.53;;;19.75;44.10
51245;BME280;37840;47.562;18.738;2023-04-30T12:10:12;99709.97;;;19.81;44.28
51245;BME280;37840;47.562;18.738;2023-04-30T12:12:39;99704.06;;;19.86;43.24
51245;BME280;37840;47.562;18.738;2023-04-30T12:15:16;99705.56;;;19.80;45.11
51245;BME280;37840;47.562;18.738;2023-04-30T12:17:44;99702.03;;;19.88;42.66
51245;BME280;37840;47.562;18.738;2023-04-30T12:20:14;99704.88;;;19.86;43.49
51245;BME280;37840;47.562;18.738;2023-04-30T12:22:42;99702.19;;;19.86;45.47
51245;BME280;37840;47.562;18.738;2023-04-30T12:25:12;99699.16;;;19.89;45.28
51245;BME280;37840;47.562;18.738;2023-04-30T12:27:44;99712.13;;;20.02;43.86
51245;BME280;37840;47.562;18.738;2023-04-30T12:30:10;99697.78;;;20.02;44.89
51245;BME280;37840;47.562;18.738;2023-04-30T12:32:49;99692.22;;;20.03;44.64
51245;BME280;37840;47.562;18.738;2023-04-30T12:35:22;99693.41;;;20.01;44.15
51245;BME280;37840;47.562;18.738;2023-04-30T12:38:01;99694.59;;;19.98;43.73
51245;BME280;37840;47.562;18.738;2023-04-30T12:40:27;99692.56;;;20.00;41.87
51245;BME280;37840;47.562;18.738;2023-04-30T12:43:00;99686.97;;;20.02;42.08
51245;BME280;37840;47.562;18.738;2023-04-30T12:45:47;99684.78;;;20.05;42.56
51245;BME280;37840;47.562;18.738;2023-04-30T12:48:14;99684.94;;;20.04;41.69
51245;BME280;37840;47.562;18.738;2023-04-30T12:50:40;99685.16;;;20.02;42.89
51245;BME280;37840;47.562;18.738;2023-04-30T12:53:07;99681.75;;;20.08;45.08
51245;BME280;37840;47.562;18.738;2023-04-30T12:55:34;99678.00;;;20.17;42.32
51245;BME280;37840;47.562;18.738;2023-04-30T13:00:49;99680.87;;;20.16;42.22
51245;BME280;37840;47.562;18.738;2023-04-30T13:03:17;99669.62;;;20.04;42.41
51245;BME280;37840;47.562;18.738;2023-04-30T13:05:49;99672.50;;;19.94;41.92
51245;BME280;37840;47.562;18.738;2023-04-30T13:08:16;99671.50;;;19.95;43.46
51245;BME280;37840;47.562;18.738;2023-04-30T13:10:43;99667.78;;;19.96;42.46
51245;BME280;37840;47.562;18.738;2023-04-30T13:13:11;99664.03;;;19.98;41.56
51245;BME280;37840;47.562;18.738;2023-04-30T13:15:37;99661.00;;;20.01;42.51
51245;BME280;37840;47.562;18.738;2023-04-30T13:18:03;99659.50;;;19.98;40.98
51245;BME280;37840;47.562;18.738;2023-04-30T13:20:29;99655.09;;;19.97;41.42
51245;BME280;37840;47.562;18.738;2023-04-30T13:22:55;99651.25;;;19.91;43.99
51245;BME280;37840;47.562;18.738;2023-04-30T13:25:21;99650.41;;;19.91;43.09
51245;BME280;37840;47.562;18.738;2023-04-30T13:27:47;99656.00;;;19.81;42.45